sensor_id;sensor_type;location;lat;lon;timestamp;pressure;altitude;pressure_sealevel;temperature;humidity
69173;BME280;56280;49.662;8.408;2023-04-08T00:00:02;101114.66;;;8.60;89.41
69173;BME280;56280;49.662;8.408;2023-04-08T00:02:28;101111.53;;;8.67;89.60
69173;BME280;56280;49.662;8.408;2023-04-08T00:04:53;101107.94;;;8.83;89.16
69173;BME280;56280;49.662;8.408;2023-04-08T00:07:19;101090.75;;;8.61;88.89
69173;BME280;56280;49.662;8.408;2023-04-08T00:09:44;101096.81;;;8.49;89.86
69173;BME280;56280;49.662;8.408;2023-04-08T00:12:09;101095.28;;;8.59;90.21
69173;BME280;56280;49.662;8.408;2023-04-08T00:14:34;101082.19;;;8.85;89.06
69173;BME280;56280;49.662;8.408;2023-04-08T00:17:02;101099.56;;;9.03;87.05
69173;BME280;56280;49.662;8.408;2023-04-08T00:19:27;101075.94;;;8.86;87.22
69173;BME280;56280;49.662;8.408;2023-04-08T00:21:53;101098.00;;;8.29;88.86
69173;BME280;56280;49.662;8.408;2023-04-08T00:24:18;101116.25;;;8.19;90.17
69173;BME280;56280;49.662;8.408;2023-04-08T00:26:43;101121.91;;;8.13;91.88
69173;BME280;56280;49.662;8.408;2023-04-08T00:29:08;101111.59;;;8.08;92.25
69173;BME280;56280;49.662;8.408;2023-04-08T00:31:35;101115.41;;;8.04;92.47
69173;BME280;56280;49.662;8.408;2023-04-08T00:34:00;101108.97;;;7.94;92.98
69173;BME280;56280;49.662;8.408;2023-04-08T00:36:26;101113.03;;;7.99;93.21
69173;BME280;56280;49.662;8.408;2023-04-08T00:38:51;101109.28;;;8.03;93.42
69173;BME280;56280;49.662;8.408;2023-04-08T00:41:17;101089.94;;;7.87;93.00
69173;BME280;56280;49.662;8.408;2023-04-08T00:43:44;101103.28;;;8.00;93.31
69173;BME280;56280;49.662;8.408;2023-04-08T00:46:09;101106.31;;;8.08;92.76
69173;BME280;56280;49.662;8.408;2023-04-08T00:48:35;101111.34;;;8.13;92.55
69173;BME280;56280;49.662;8.408;2023-04-08T00:51:00;101098.47;;;8.21;91.79
69173;BME280;56280;49.662;8.408;2023-04-08T00:53:26;101119.97;;;8.45;91.57
69173;BME280;56280;49.662;8.408;2023-04-08T00:55:52;101109.72;;;8.82;89.46
69173;BME280;56280;49.662;8.408;2023-04-08T00:58:17;101113.03;;;9.27;87.64
69173;BME280;56280;49.662;8.408;2023-04-08T01:00:51;101093.69;;;9.25;85.90
69173;BME280;56280;49.662;8.408;2023-04-08T01:03:26;101097.34;;;9.37;84.69
69173;BME280;56280;49.662;8.408;2023-04-08T01:06:19;101112.03;;;9.56;84.23
69173;BME280;56280;49.662;8.408;2023-04-08T01:08:41;101109.69;;;9.64;83.77
69173;BME280;56280;49.662;8.408;2023-04-08T01:11:09;101097.78;;;9.44;84.07
69173;BME280;56280;49.662;8.408;2023-04-08T01:13:39;101108.22;;;9.60;82.94
69173;BME280;56280;49.662;8.408;2023-04-08T01:16:06;101106.31;;;9.62;83.42
69173;BME280;56280;49.662;8.408;2023-04-08T01:18:34;101102.03;;;9.59;82.67
69173;BME280;56280;49.662;8.408;2023-04-08T01:21:01;101110.34;;;9.00;83.61
69173;BME280;56280;49.662;8.408;2023-04-08T01:23:38;101113.09;;;8.57;86.66
69173;BME280;56280;49.662;8.408;2023-04-08T01:26:05;101118.16;;;8.31;88.97
69173;BME280;56280;49.662;8.408;2023-04-08T01:28:32;101122.41;;;8.34;90.12
69173;BME280;56280;49.662;8.408;2023-04-08T01:30:59;101117.13;;;8.19;91.01
69173;BME280;56280;49.662;8.408;2023-04-08T01:33:26;101094.41;;;8.01;91.62
69173;BME280;56280;49.662;8.408;2023-04-08T01:35:52;101118.34;;;8.14;92.12
69173;BME280;56280;49.662;8.408;2023-04-08T01:38:19;101123.28;;;8.34;91.46
69173;BME280;56280;49.662;8.408;2023-04-08T01:40:47;101100.19;;;8.36;90.71
69173;BME280;56280;49.662;8.408;2023-04-08T01:43:15;101100.84;;;8.69;89.86
69173;BME280;56280;49.662;8.408;2023-04-08T01:45:43;101111.50;;;8.96;87.90
69173;BME280;56280;49.662;8.408;2023-04-08T01:48:11;101103.84;;;9.46;85.58
69173;BME280;56280;49.662;8.408;2023-04-08T01:50:39;101099.81;;;9.40;84.47
69173;BME280;56280;49.662;8.408;2023-04-08T01:53:08;101111.28;;;8.43;86.65
69173;BME280;56280;49.662;8.408;2023-04-08T01:55:34;101097.44;;;8.09;89.93
69173;BME280;56280;49.662;8.408;2023-04-08T01:58:00;101108.69;;;8.42;90.26
69173;BME280;56280;49.662;8.408;2023-04-08T02:00:27;101104.28;;;8.28;90.36
69173;BME280;56280;49.662;8.408;2023-04-08T02:02:54;101102.66;;;8.11;91.53
69173;BME280;56280;49.662;8.408;2023-04-08T02:05:20;101106.31;;;8.08;92.21
69173;BME280;56280;49.662;8.408;2023-04-08T02:07:47;101121.75;;;8.30;92.57
69173;BME280;56280;49.662;8.408;2023-04-08T02:10:12;101104.56;;;8.37;90.80
69173;BME280;56280;49.662;8.408;2023-04-08T02:12:38;101097.16;;;8.14;90.45
69173;BME280;56280;49.662;8.408;2023-04-08T02:15:03;101111.06;;;8.17;91.34
69173;BME280;56280;49.662;8.408;2023-04-08T02:20:17;101114.50;;;8.48;90.54
69173;BME280;56280;49.662;8.408;2023-04-08T02:22:56;101098.88;;;8.29;89.88
69173;BME280;56280;49.662;8.408;2023-04-08T02:25:24;101117.00;;;8.21;90.57
69173;BME280;56280;49.662;8.408;2023-04-08T02:27:51;101124.00;;;8.08;91.90
69173;BME280;56280;49.662;8.408;2023-04-08T02:30:17;101121.63;;;8.03;92.67
69173;BME280;56280;49.662;8.408;2023-04-08T02:32:44;101120.63;;;8.20;92.31
69173;BME280;56280;49.662;8.408;2023-04-08T02:35:11;101122.91;;;8.26;91.85
69173;BME280;56280;49.662;8.408;2023-04-08T02:37:37;101115.53;;;8.31;91.75
69173;BME280;56280;49.662;8.408;2023-04-08T02:40:03;101117.22;;;8.47;90.81
69173;BME280;56280;49.662;8.408;2023-04-08T02:42:28;101114.88;;;8.42;89.77
69173;BME280;56280;49.662;8.408;2023-04-08T02:44:53;101111.38;;;8.56;89.45
69173;BME280;56280;49.662;8.408;2023-04-08T02:47:19;101101.66;;;8.84;87.49
69173;BME280;56280;49.662;8.408;2023-04-08T02:49:45;101115.22;;;8.93;86.70
69173;BME280;56280;49.662;8.408;2023-04-08T02:52:10;101114.47;;;8.77;86.19
69173;BME280;56280;49.662;8.408;2023-04-08T02:54:35;101118.34;;;8.86;86.80
69173;BME280;56280;49.662;8.408;2023-04-08T02:57:01;101120.06;;;8.58;86.82
69173;BME280;56280;49.662;8.408;2023-04-08T02:59:26;101117.41;;;8.72;87.94
69173;BME280;56280;49.662;8.408;2023-04-08T03:01:51;101122.06;;;9.10;86.60
69173;BME280;56280;49.662;8.408;2023-04-08T03:04:16;101108.00;;;8.96;85.21
69173;BME280;56280;49.662;8.408;2023-04-08T03:06:42;101119.88;;;8.61;86.49
69173;BME280;56280;49.662;8.408;2023-04-08T03:09:07;101126.19;;;8.30;88.46
69173;BME280;56280;49.662;8.408;2023-04-08T03:11:32;101109.94;;;8.07;89.89
69173;BME280;56280;49.662;8.408;2023-04-08T03:13:58;101132.06;;;8.20;90.27
69173;BME280;56280;49.662;8.408;2023-04-08T03:16:23;101121.44;;;8.06;91.24
69173;BME280;56280;49.662;8.408;2023-04-08T03:18:49;101112.72;;;7.90;91.83
69173;BME280;56280;49.662;8.408;2023-04-08T03:21:17;101117.31;;;8.02;91.94
69173;BME280;56280;49.662;8.408;2023-04-08T03:23:43;101130.44;;;8.03;91.90
69173;BME280;56280;49.662;8.408;2023-04-08T03:26:08;101119.47;;;8.10;91.26
69173;BME280;56280;49.662;8.408;2023-04-08T03:28:33;101131.84;;;8.09;91.57
69173;BME280;56280;49.662;8.408;2023-04-08T03:30:59;101136.47;;;8.06;91.78
69173;BME280;56280;49.662;8.408;2023-04-08T03:33:25;101143.38;;;8.08;91.71
69173;BME280;56280;49.662;8.408;2023-04-08T03:35:50;101116.63;;;8.13;91.44
69173;BME280;56280;49.662;8.408;2023-04-08T03:38:16;101137.06;;;8.11;91.00
69173;BME280;56280;49.662;8.408;2023-04-08T03:40:41;101138.91;;;7.94;91.38
69173;BME280;56280;49.662;8.408;2023-04-08T03:43:06;101145.09;;;8.09;91.57
69173;BME280;56280;49.662;8.408;2023-04-08T03:45:32;101135.53;;;8.21;90.29
69173;BME280;56280;49.662;8.408;2023-04-08T03:47:58;101111.59;;;7.79;91.55
69173;BME280;56280;49.662;8.408;2023-04-08T03:50:23;101138.00;;;7.95;91.97
69173;BME280;56280;49.662;8.408;2023-04-08T03:52:48;101136.00;;;7.99;92.09
69173;BME280;56280;49.662;8.408;2023-04-08T03:55:14;101144.16;;;7.80;92.68
69173;BME280;56280;49.662;8.408;2023-04-08T03:57:39;101142.94;;;7.71;93.73
69173;BME280;56280;49.662;8.408;2023-04-08T04:00:05;101124.66;;;7.36;94.49
69173;BME280;56280;49.662;8.408;2023-04-08T04:02:31;101144.84;;;7.53;94.98
69173;BME280;56280;49.662;8.408;2023-04-08T04:04:56;101135.41;;;7.33;95.84
69173;BME280;56280;49.662;8.408;2023-04-08T04:07:21;101135.75;;;7.27;96.46
69173;BME280;56280;49.662;8.408;2023-04-08T04:09:47;101151.38;;;7.32;96.19
69173;BME280;56280;49.662;8.408;2023-04-08T04:12:12;101141.88;;;7.27;96.77
69173;BME280;56280;49.662;8.408;2023-04-08T04:14:37;101153.66;;;7.38;96.93
69173;BME280;56280;49.662;8.408;2023-04-08T04:17:02;101158.38;;;7.33;97.49
69173;BME280;56280;49.662;8.408;2023-04-08T04:19:31;101151.69;;;7.25;97.49
69173;BME280;56280;49.662;8.408;2023-04-08T04:21:56;101147.09;;;7.13;97.62
69173;BME280;56280;49.662;8.408;2023-04-08T04:24:21;101150.44;;;7.17;98.07
69173;BME280;56280;49.662;8.408;2023-04-08T04:26:47;101142.84;;;7.10;98.22
69173;BME280;56280;49.662;8.408;2023-04-08T04:29:12;101151.78;;;7.24;98.25
69173;BME280;56280;49.662;8.408;2023-04-08T04:31:37;101163.91;;;7.12;98.41
69173;BME280;56280;49.662;8.408;2023-04-08T04:34:02;101158.53;;;6.98;98.55
69173;BME280;56280;49.662;8.408;2023-04-08T04:36:28;101169.88;;;7.00;99.02
69173;BME280;56280;49.662;8.408;2023-04-08T04:38:53;101165.06;;;6.90;99.02
69173;BME280;56280;49.662;8.408;2023-04-08T04:41:18;101174.47;;;6.96;99.67
69173;BME280;56280;49.662;8.408;2023-04-08T04:43:44;101174.38;;;6.98;100.00
69173;BME280;56280;49.662;8.408;2023-04-08T04:46:09;101173.63;;;6.96;99.83
69173;BME280;56280;49.662;8.408;2023-04-08T04:48:35;101178.13;;;6.93;100.00
69173;BME280;56280;49.662;8.408;2023-04-08T04:51:00;101167.81;;;6.89;100.00
69173;BME280;56280;49.662;8.408;2023-04-08T04:53:27;101180.59;;;6.97;100.00
69173;BME280;56280;49.662;8.408;2023-04-08T04:55:52;101150.44;;;6.85;100.00
69173;BME280;56280;49.662;8.408;2023-04-08T04:58:18;101175.56;;;6.92;100.00
69173;BME280;56280;49.662;8.408;2023-04-08T05:00:43;101162.34;;;6.76;100.00
69173;BME280;56280;49.662;8.408;2023-04-08T05:03:09;101177.09;;;6.80;100.00
69173;BME280;56280;49.662;8.408;2023-04-08T05:05:35;101167.97;;;6.70;100.00
69173;BME280;56280;49.662;8.408;2023-04-08T05:08:00;101182.38;;;6.80;100.00
69173;BME280;56280;49.662;8.408;2023-04-08T05:10:25;101175.63;;;6.74;100.00
69173;BME280;56280;49.662;8.408;2023-04-08T05:12:50;101177.81;;;6.66;100.00
69173;BME280;56280;49.662;8.408;2023-04-08T05:15:16;101175.44;;;6.62;100.00
69173;BME280;56280;49.662;8.408;2023-04-08T05:17:41;101186.78;;;6.64;100.00
69173;BME280;56280;49.662;8.408;2023-04-08T05:20:07;101180.34;;;6.52;100.00
69173;BME280;56280;49.662;8.408;2023-04-08T05:22:32;101194.88;;;6.61;100.00
69173;BME280;56280;49.662;8.408;2023-04-08T05:24:58;101188.63;;;6.46;100.00
69173;BME280;56280;49.662;8.408;2023-04-08T05:27:23;101210.09;;;6.55;100.00
69173;BME280;56280;49.662;8.408;2023-04-08T05:29:49;101190.53;;;6.42;100.00
69173;BME280;56280;49.662;8.408;2023-04-08T05:32:14;101199.41;;;6.41;100.00
69173;BME280;56280;49.662;8.408;2023-04-08T05:34:41;101199.09;;;6.47;100.00
69173;BME280;56280;49.662;8.408;2023-04-08T05:37:06;101205.06;;;6.51;100.00
69173;BME280;56280;49.662;8.408;2023-04-08T05:39:31;101213.56;;;6.56;100.00
69173;BME280;56280;49.662;8.408;2023-04-08T05:41:57;101200.69;;;6.50;100.00
69173;BME280;56280;49.662;8.408;2023-04-08T05:44:22;101209.75;;;6.62;100.00
69173;BME280;56280;49.662;8.408;2023-04-08T05:46:47;101218.44;;;6.81;100.00
69173;BME280;56280;49.662;8.408;2023-04-08T05:49:12;101213.53;;;6.73;99.16
69173;BME280;56280;49.662;8.408;2023-04-08T05:51:38;101232.56;;;6.80;99.29
69173;BME280;56280;49.662;8.408;2023-04-08T05:54:03;101211.97;;;7.03;98.57
69173;BME280;56280;49.662;8.408;2023-04-08T05:56:29;101217.53;;;7.30;97.44
69173;BME280;56280;49.662;8.408;2023-04-08T05:58:56;101223.72;;;7.45;95.98
69173;BME280;56280;49.662;8.408;2023-04-08T06:01:21;101234.59;;;7.87;94.75
69173;BME280;56280;49.662;8.408;2023-04-08T06:03:46;101236.91;;;8.23;93.21
69173;BME280;56280;49.662;8.408;2023-04-08T06:06:12;101229.44;;;8.74;91.43
69173;BME280;56280;49.662;8.408;2023-04-08T06:08:38;101232.16;;;8.58;88.73
69173;BME280;56280;49.662;8.408;2023-04-08T06:11:03;101234.09;;;8.40;89.30
69173;BME280;56280;49.662;8.408;2023-04-08T06:13:30;101225.81;;;7.86;90.27
69173;BME280;56280;49.662;8.408;2023-04-08T06:15:56;101248.97;;;7.82;91.80
69173;BME280;56280;49.662;8.408;2023-04-08T06:18:22;101242.06;;;8.10;92.13
69173;BME280;56280;49.662;8.408;2023-04-08T06:20:47;101249.63;;;7.86;90.30
69173;BME280;56280;49.662;8.408;2023-04-08T06:23:13;101256.50;;;7.58;90.07
69173;BME280;56280;49.662;8.408;2023-04-08T06:25:38;101270.91;;;7.37;90.79
69173;BME280;56280;49.662;8.408;2023-04-08T06:28:04;101238.72;;;6.97;92.57
69173;BME280;56280;49.662;8.408;2023-04-08T06:30:29;101261.56;;;6.98;94.16
69173;BME280;56280;49.662;8.408;2023-04-08T06:32:54;101274.41;;;7.21;95.23
69173;BME280;56280;49.662;8.408;2023-04-08T06:35:20;101270.38;;;7.78;93.93
69173;BME280;56280;49.662;8.408;2023-04-08T06:37:45;101275.81;;;7.11;91.29
69173;BME280;56280;49.662;8.408;2023-04-08T06:40:11;101267.16;;;6.91;90.79
69173;BME280;56280;49.662;8.408;2023-04-08T06:42:36;101275.53;;;7.00;92.21
69173;BME280;56280;49.662;8.408;2023-04-08T06:45:03;101273.34;;;7.24;90.38
69173;BME280;56280;49.662;8.408;2023-04-08T06:47:28;101273.81;;;6.99;90.71
69173;BME280;56280;49.662;8.408;2023-04-08T06:49:53;101283.31;;;7.03;89.28
69173;BME280;56280;49.662;8.408;2023-04-08T06:52:19;101282.53;;;6.67;89.51
69173;BME280;56280;49.662;8.408;2023-04-08T06:54:44;101288.97;;;6.62;90.06
69173;BME280;56280;49.662;8.408;2023-04-08T06:57:10;101284.25;;;6.51;90.78
69173;BME280;56280;49.662;8.408;2023-04-08T06:59:36;101271.91;;;6.51;91.77
69173;BME280;56280;49.662;8.408;2023-04-08T07:02:01;101269.69;;;7.10;89.85
69173;BME280;56280;49.662;8.408;2023-04-08T07:04:26;101272.94;;;7.32;87.73
69173;BME280;56280;49.662;8.408;2023-04-08T07:06:51;101280.31;;;8.04;86.72
69173;BME280;56280;49.662;8.408;2023-04-08T07:09:17;101269.78;;;8.19;83.91
69173;BME280;56280;49.662;8.408;2023-04-08T07:11:42;101263.16;;;8.12;81.87
69173;BME280;56280;49.662;8.408;2023-04-08T07:14:08;101285.53;;;8.36;80.74
69173;BME280;56280;49.662;8.408;2023-04-08T07:16:33;101294.97;;;8.26;80.93
69173;BME280;56280;49.662;8.408;2023-04-08T07:18:58;101285.44;;;8.08;80.39
69173;BME280;56280;49.662;8.408;2023-04-08T07:21:23;101280.97;;;7.46;82.62
69173;BME280;56280;49.662;8.408;2023-04-08T07:23:49;101288.31;;;7.41;84.37
69173;BME280;56280;49.662;8.408;2023-04-08T07:26:15;101292.56;;;7.91;83.76
69173;BME280;56280;49.662;8.408;2023-04-08T07:28:40;101300.47;;;8.37;82.78
69173;BME280;56280;49.662;8.408;2023-04-08T07:31:12;101301.47;;;8.51;81.11
69173;BME280;56280;49.662;8.408;2023-04-08T07:33:38;101310.53;;;8.16;81.79
69173;BME280;56280;49.662;8.408;2023-04-08T07:36:03;101299.84;;;8.18;81.80
69173;BME280;56280;49.662;8.408;2023-04-08T07:38:29;101307.97;;;8.15;82.36
69173;BME280;56280;49.662;8.408;2023-04-08T07:40:54;101306.28;;;8.74;79.96
69173;BME280;56280;49.662;8.408;2023-04-08T07:43:20;101308.25;;;8.40;78.99
69173;BME280;56280;49.662;8.408;2023-04-08T07:45:45;101309.56;;;7.71;81.30
69173;BME280;56280;49.662;8.408;2023-04-08T07:48:11;101331.72;;;7.69;82.57
69173;BME280;56280;49.662;8.408;2023-04-08T07:50:36;101315.44;;;7.60;82.98
69173;BME280;56280;49.662;8.408;2023-04-08T07:53:02;101335.56;;;7.95;81.88
69173;BME280;56280;49.662;8.408;2023-04-08T07:55:27;101314.78;;;8.19;81.52
69173;BME280;56280;49.662;8.408;2023-04-08T07:57:52;101318.50;;;7.69;83.34
69173;BME280;56280;49.662;8.408;2023-04-08T08:00:18;101319.69;;;7.63;84.83
69173;BME280;56280;49.662;8.408;2023-04-08T08:02:46;101333.50;;;8.00;85.33
69173;BME280;56280;49.662;8.408;2023-04-08T08:05:12;101328.06;;;8.33;83.29
69173;BME280;56280;49.662;8.408;2023-04-08T08:07:37;101313.09;;;8.18;84.11
69173;BME280;56280;49.662;8.408;2023-04-08T08:10:03;101324.81;;;7.82;83.31
69173;BME280;56280;49.662;8.408;2023-04-08T08:12:28;101338.47;;;7.90;84.30
69173;BME280;56280;49.662;8.408;2023-04-08T08:14:53;101341.97;;;7.75;84.38
69173;BME280;56280;49.662;8.408;2023-04-08T08:17:23;101329.44;;;7.78;84.68
69173;BME280;56280;49.662;8.408;2023-04-08T08:19:48;101348.78;;;7.95;84.72
69173;BME280;56280;49.662;8.408;2023-04-08T08:22:14;101347.00;;;7.79;84.81
69173;BME280;56280;49.662;8.408;2023-04-08T08:24:39;101347.78;;;7.97;85.04
69173;BME280;56280;49.662;8.408;2023-04-08T08:27:04;101326.53;;;7.99;85.11
69173;BME280;56280;49.662;8.408;2023-04-08T08:29:30;101340.91;;;8.25;84.75
69173;BME280;56280;49.662;8.408;2023-04-08T08:31:55;101329.31;;;8.12;84.84
69173;BME280;56280;49.662;8.408;2023-04-08T08:34:22;101340.00;;;7.94;84.98
69173;BME280;56280;49.662;8.408;2023-04-08T08:36:47;101341.25;;;8.19;85.29
69173;BME280;56280;49.662;8.408;2023-04-08T08:39:12;101331.38;;;8.07;85.48
69173;BME280;56280;49.662;8.408;2023-04-08T08:41:38;101343.84;;;8.51;86.04
69173;BME280;56280;49.662;8.408;2023-04-08T08:44:07;101354.13;;;8.71;84.76
69173;BME280;56280;49.662;8.408;2023-04-08T08:46:34;101337.50;;;9.12;83.81
69173;BME280;56280;49.662;8.408;2023-04-08T08:49:00;101344.75;;;8.66;80.35
69173;BME280;56280;49.662;8.408;2023-04-08T08:51:25;101341.13;;;8.97;82.00
69173;BME280;56280;49.662;8.408;2023-04-08T08:53:52;101351.94;;;9.37;80.01
69173;BME280;56280;49.662;8.408;2023-04-08T08:56:17;101341.84;;;8.85;79.58
69173;BME280;56280;49.662;8.408;2023-04-08T08:58:42;101358.91;;;9.09;80.13
69173;BME280;56280;49.662;8.408;2023-04-08T09:04:14;101365.38;;;9.34;79.75
69173;BME280;56280;49.662;8.408;2023-04-08T09:06:48;101374.63;;;9.12;79.41
69173;BME280;56280;49.662;8.408;2023-04-08T09:09:15;101356.34;;;9.08;76.84
69173;BME280;56280;49.662;8.408;2023-04-08T09:11:45;101360.91;;;9.06;77.26
69173;BME280;56280;49.662;8.408;2023-04-08T09:16:46;101371.78;;;9.01;77.23
69173;BME280;56280;49.662;8.408;2023-04-08T09:19:11;101371.69;;;9.03;76.77
69173;BME280;56280;49.662;8.408;2023-04-08T09:21:38;101343.00;;;9.09;77.61
69173;BME280;56280;49.662;8.408;2023-04-08T09:24:05;101377.66;;;9.21;75.97
69173;BME280;56280;49.662;8.408;2023-04-08T09:26:30;101357.78;;;9.28;75.09
69173;BME280;56280;49.662;8.408;2023-04-08T09:29:06;101368.84;;;9.06;74.78
69173;BME280;56280;49.662;8.408;2023-04-08T09:31:34;101358.44;;;9.03;74.62
69173;BME280;56280;49.662;8.408;2023-04-08T09:34:12;101383.19;;;9.18;74.77
69173;BME280;56280;49.662;8.408;2023-04-08T09:36:39;101385.31;;;9.11;74.92
69173;BME280;56280;49.662;8.408;2023-04-08T09:39:04;101368.56;;;8.96;74.84
69173;BME280;56280;49.662;8.408;2023-04-08T09:41:33;101362.34;;;9.11;76.16
69173;BME280;56280;49.662;8.408;2023-04-08T09:44:02;101367.63;;;9.11;72.74
69173;BME280;56280;49.662;8.408;2023-04-08T09:49:12;101386.22;;;9.55;75.97
69173;BME280;56280;49.662;8.408;2023-04-08T09:51:49;101385.25;;;9.27;73.28
69173;BME280;56280;49.662;8.408;2023-04-08T09:54:20;101376.72;;;9.36;73.93
69173;BME280;56280;49.662;8.408;2023-04-08T09:56:50;101388.75;;;9.56;73.23
69173;BME280;56280;49.662;8.408;2023-04-08T09:59:20;101387.44;;;9.49;72.66
69173;BME280;56280;49.662;8.408;2023-04-08T10:01:53;101386.41;;;9.66;72.98
69173;BME280;56280;49.662;8.408;2023-04-08T10:04:19;101392.25;;;9.85;70.70
69173;BME280;56280;49.662;8.408;2023-04-08T10:06:51;101387.44;;;9.49;72.20
69173;BME280;56280;49.662;8.408;2023-04-08T10:09:20;101389.63;;;9.57;73.24
69173;BME280;56280;49.662;8.408;2023-04-08T10:11:46;101373.78;;;10.11;72.91
69173;BME280;56280;49.662;8.408;2023-04-08T10:14:12;101373.69;;;9.57;69.83
69173;BME280;56280;49.662;8.408;2023-04-08T10:16:37;101387.53;;;10.03;71.18
69173;BME280;56280;49.662;8.408;2023-04-08T10:19:35;101397.75;;;9.54;69.74
69173;BME280;56280;49.662;8.408;2023-04-08T10:22:02;101379.66;;;9.31;70.35
69173;BME280;56280;49.662;8.408;2023-04-08T10:24:27;101372.34;;;9.06;71.05
69173;BME280;56280;49.662;8.408;2023-04-08T10:26:53;101383.38;;;9.29;72.62
69173;BME280;56280;49.662;8.408;2023-04-08T10:31:44;101390.00;;;9.51;72.34
69173;BME280;56280;49.662;8.408;2023-04-08T10:34:20;101394.63;;;9.33;71.14
69173;BME280;56280;49.662;8.408;2023-04-08T10:36:47;101395.56;;;9.17;71.46
69173;BME280;56280;49.662;8.408;2023-04-08T10:39:13;101396.81;;;9.26;71.11
69173;BME280;56280;49.662;8.408;2023-04-08T10:41:46;101384.13;;;9.31;72.39
69173;BME280;56280;49.662;8.408;2023-04-08T10:44:22;101400.41;;;9.39;71.67
69173;BME280;56280;49.662;8.408;2023-04-08T10:46:50;101385.56;;;9.93;71.09
69173;BME280;56280;49.662;8.408;2023-04-08T10:49:16;101395.94;;;10.25;68.53
69173;BME280;56280;49.662;8.408;2023-04-08T10:51:42;101405.53;;;9.57;70.79
69173;BME280;56280;49.662;8.408;2023-04-08T10:54:13;101390.50;;;9.99;72.02
69173;BME280;56280;49.662;8.408;2023-04-08T10:56:49;101390.50;;;9.99;71.36
69173;BME280;56280;49.662;8.408;2023-04-08T10:59:16;101378.78;;;9.89;69.94
69173;BME280;56280;49.662;8.408;2023-04-08T11:01:45;101372.03;;;10.52;69.89
69173;BME280;56280;49.662;8.408;2023-04-08T11:04:12;101380.31;;;10.47;69.39
69173;BME280;56280;49.662;8.408;2023-04-08T11:06:37;101379.44;;;9.92;69.12
69173;BME280;56280;49.662;8.408;2023-04-08T11:09:03;101374.38;;;10.02;69.27
69173;BME280;56280;49.662;8.408;2023-04-08T11:11:29;101387.13;;;9.82;68.38
69173;BME280;56280;49.662;8.408;2023-04-08T11:13:55;101385.31;;;10.25;70.18
69173;BME280;56280;49.662;8.408;2023-04-08T11:16:21;101383.13;;;9.75;69.28
69173;BME280;56280;49.662;8.408;2023-04-08T11:18:47;101385.28;;;9.97;71.40
69173;BME280;56280;49.662;8.408;2023-04-08T11:21:14;101373.97;;;10.08;68.56
69173;BME280;56280;49.662;8.408;2023-04-08T11:23:41;101380.59;;;10.15;67.64
69173;BME280;56280;49.662;8.408;2023-04-08T11:26:06;101370.53;;;10.48;66.50
69173;BME280;56280;49.662;8.408;2023-04-08T11:28:32;101374.63;;;10.12;67.13
69173;BME280;56280;49.662;8.408;2023-04-08T11:30:59;101373.06;;;9.80;63.98
69173;BME280;56280;49.662;8.408;2023-04-08T11:33:29;101369.81;;;10.04;65.46
69173;BME280;56280;49.662;8.408;2023-04-08T11:35:55;101341.34;;;10.06;65.02
69173;BME280;56280;49.662;8.408;2023-04-08T11:38:21;101373.25;;;10.19;64.64
69173;BME280;56280;49.662;8.408;2023-04-08T11:40:57;101363.00;;;10.00;66.51
69173;BME280;56280;49.662;8.408;2023-04-08T11:43:23;101374.28;;;10.03;65.98
69173;BME280;56280;49.662;8.408;2023-04-08T11:45:50;101371.63;;;10.03;63.49
69173;BME280;56280;49.662;8.408;2023-04-08T11:48:16;101363.75;;;10.29;64.02
69173;BME280;56280;49.662;8.408;2023-04-08T11:50:43;101374.47;;;10.28;64.57
69173;BME280;56280;49.662;8.408;2023-04-08T11:53:18;101356.97;;;10.11;64.25
69173;BME280;56280;49.662;8.408;2023-04-08T11:55:44;101364.25;;;10.21;64.56
69173;BME280;56280;49.662;8.408;2023-04-08T11:58:09;101350.78;;;9.97;63.23
69173;BME280;56280;49.662;8.408;2023-04-08T12:00:35;101345.66;;;10.21;64.46
69173;BME280;56280;49.662;8.408;2023-04-08T12:03:01;101352.88;;;10.19;65.39
69173;BME280;56280;49.662;8.408;2023-04-08T12:05:26;101340.22;;;10.10;65.02
69173;BME280;56280;49.662;8.408;2023-04-08T12:07:51;101334.50;;;10.16;66.64
69173;BME280;56280;49.662;8.408;2023-04-08T12:10:17;101340.31;;;10.36;65.83
69173;BME280;56280;49.662;8.408;2023-04-08T12:12:42;101341.31;;;10.48;66.33
69173;BME280;56280;49.662;8.408;2023-04-08T12:15:08;101339.56;;;10.74;63.76
69173;BME280;56280;49.662;8.408;2023-04-08T12:17:34;101343.41;;;10.95;63.49
69173;BME280;56280;49.662;8.408;2023-04-08T12:20:00;101343.78;;;10.64;65.65
69173;BME280;56280;49.662;8.408;2023-04-08T12:22:25;101354.06;;;10.28;66.75
69173;BME280;56280;49.662;8.408;2023-04-08T12:24:51;101361.81;;;10.46;67.38
69173;BME280;56280;49.662;8.408;2023-04-08T12:27:16;101339.41;;;10.50;66.69
69173;BME280;56280;49.662;8.408;2023-04-08T12:29:41;101355.78;;;10.56;66.67
69173;BME280;56280;49.662;8.408;2023-04-08T12:32:07;101340.75;;;10.43;66.06
69173;BME280;56280;49.662;8.408;2023-04-08T12:34:33;101344.66;;;10.77;67.15
69173;BME280;56280;49.662;8.408;2023-04-08T12:36:58;101345.50;;;10.65;66.61
69173;BME280;56280;49.662;8.408;2023-04-08T12:39:23;101332.59;;;10.46;67.49
69173;BME280;56280;49.662;8.408;2023-04-08T12:41:49;101344.88;;;10.74;68.63
69173;BME280;56280;49.662;8.408;2023-04-08T12:44:14;101321.63;;;10.37;67.42
69173;BME280;56280;49.662;8.408;2023-04-08T12:46:40;101335.16;;;10.47;68.47
69173;BME280;56280;49.662;8.408;2023-04-08T12:49:05;101341.03;;;10.78;68.59
69173;BME280;56280;49.662;8.408;2023-04-08T12:51:31;101329.38;;;10.93;65.60
69173;BME280;56280;49.662;8.408;2023-04-08T12:53:56;101339.91;;;10.95;66.67
69173;BME280;56280;49.662;8.408;2023-04-08T12:56:22;101340.22;;;11.03;65.70
69173;BME280;56280;49.662;8.408;2023-04-08T12:58:47;101345.59;;;10.63;66.66
69173;BME280;56280;49.662;8.408;2023-04-08T13:01:13;101322.28;;;10.54;67.62
69173;BME280;56280;49.662;8.408;2023-04-08T13:03:38;101343.25;;;10.58;67.31
69173;BME280;56280;49.662;8.408;2023-04-08T13:06:05;101333.59;;;10.83;67.69